松山塔臺+地面 二號臺

METAR RCSS 220530Z 31010KT 270V330 9999 FEW020 33/23 Q1009 NOSIG RMK 31009KT/R10 A2981=